createdAt,value
2022-08-26T00:00:56.997Z,4.28
2022-08-26T00:02:59.203Z,5.30
2022-08-26T00:05:00.954Z,5.47
2022-08-26T00:07:02.949Z,4.82
2022-08-26T00:09:08.133Z,5.63
2022-08-26T00:11:10.247Z,4.90
2022-08-26T00:13:13.038Z,5.20
2022-08-26T00:15:19.085Z,5.95
2022-08-26T00:17:21.771Z,5.20
2022-08-26T00:19:23.681Z,5.60
2022-08-26T00:21:25.482Z,5.82
2022-08-26T00:23:27.196Z,6.03
2022-08-26T00:25:42.460Z,6.78
2022-08-26T00:27:44.611Z,6.80
2022-08-26T00:29:46.465Z,6.85
2022-08-26T00:31:48.458Z,6.43
2022-08-26T00:33:50.985Z,6.47
2022-08-26T00:35:53.117Z,6.97
2022-08-26T00:37:55.764Z,6.95
2022-08-26T00:39:57.948Z,7.20
2022-08-26T00:42:02.503Z,6.82
2022-08-26T00:44:04.866Z,6.80
2022-08-26T00:46:31.487Z,7.47
2022-08-26T00:48:35.768Z,7.05
2022-08-26T00:50:41.920Z,6.35
2022-08-26T00:52:46.068Z,7.28
2022-08-26T00:54:55.655Z,7.60
2022-08-26T00:56:59.841Z,8.73
2022-08-26T00:59:11.962Z,7.05
2022-08-26T01:01:15.256Z,7.60
2022-08-26T01:03:19.712Z,7.32
2022-08-26T01:05:23.794Z,7.38
2022-08-26T01:07:27.372Z,7.68
2022-08-26T01:09:30.651Z,7.97
2022-08-26T01:11:33.139Z,8.05
2022-08-26T01:13:37.193Z,7.85
2022-08-26T01:15:49.337Z,8.55
2022-08-26T01:17:52.354Z,7.85
2022-08-26T01:20:03.413Z,7.75
2022-08-26T01:24:31.659Z,8.05
2022-08-26T01:26:40.517Z,8.35
2022-08-26T01:28:43.405Z,7.85
2022-08-26T01:30:52.596Z,7.95
2022-08-26T01:32:58.038Z,7.03
2022-08-26T01:35:00.936Z,7.68
2022-08-26T01:37:07.729Z,6.82
2022-08-26T01:39:10.375Z,7.25
2022-08-26T01:41:19.680Z,7.63
2022-08-26T01:43:26.043Z,7.07
2022-08-26T01:45:42.340Z,7.35
2022-08-26T01:47:46.131Z,7.25
2022-08-26T01:49:53.609Z,6.88
2022-08-26T01:51:57.774Z,6.63
2022-08-26T01:54:00.201Z,7.70
2022-08-26T01:56:03.755Z,6.65
2022-08-26T01:58:11.768Z,7.72
2022-08-26T02:00:16.221Z,7.43
2022-08-26T02:02:18.127Z,6.82
2022-08-26T02:04:26.143Z,6.72
2022-08-26T02:06:27.958Z,6.72
2022-08-26T02:08:43.860Z,6.68
2022-08-26T02:10:45.725Z,6.75
2022-08-26T02:12:47.809Z,6.63
2022-08-26T02:15:05.570Z,6.72
2022-08-26T02:17:10.081Z,6.50
2022-08-26T02:19:17.565Z,6.63
2022-08-26T02:21:19.295Z,6.40
2022-08-26T02:23:21.029Z,5.97
2022-08-26T02:25:32.815Z,6.00
2022-08-26T02:27:35.408Z,6.45
2022-08-26T02:29:43.607Z,6.13
2022-08-26T02:31:45.675Z,5.68
2022-08-26T02:33:47.457Z,6.05
2022-08-26T02:35:49.188Z,6.03
2022-08-26T02:37:52.285Z,5.95
2022-08-26T02:39:54.392Z,5.70
2022-08-26T02:41:56.331Z,4.78
2022-08-26T02:43:58.103Z,4.90
2022-08-26T02:46:01.987Z,5.57
2022-08-26T02:48:12.351Z,5.72
2022-08-26T02:50:14.685Z,6.23
2022-08-26T02:52:18.898Z,6.22
2022-08-26T02:54:21.632Z,5.22
2022-08-26T02:56:23.725Z,5.20
2022-08-26T02:58:25.486Z,5.53
2022-08-26T03:00:29.127Z,5.60
2022-08-26T03:02:30.863Z,5.38
2022-08-26T03:04:33.345Z,5.28
2022-08-26T03:06:35.766Z,5.72
2022-08-26T03:08:39.309Z,5.65
2022-08-26T03:10:41.357Z,5.45
2022-08-26T03:12:47.399Z,5.30
2022-08-26T03:14:49.785Z,6.15
2022-08-26T03:16:54.490Z,5.93
2022-08-26T03:18:56.299Z,5.47
2022-08-26T03:20:58.204Z,5.68
2022-08-26T03:23:00.427Z,5.95
2022-08-26T03:25:07.326Z,5.50
2022-08-26T03:27:09.001Z,6.10
2022-08-26T03:29:29.221Z,6.25
2022-08-26T03:31:34.782Z,5.53
2022-08-26T03:33:36.509Z,5.97
2022-08-26T03:35:41.741Z,5.47
2022-08-26T03:37:43.636Z,5.82
2022-08-26T03:39:45.962Z,5.65
2022-08-26T03:41:48.038Z,6.32
2022-08-26T03:43:50.999Z,6.38
2022-08-26T03:45:52.766Z,6.10
2022-08-26T03:47:54.663Z,6.30
2022-08-26T03:49:59.777Z,6.47
2022-08-26T03:52:02.746Z,7.13
2022-08-26T03:54:08.436Z,6.80
2022-08-26T03:56:10.804Z,6.80
2022-08-26T03:58:12.618Z,6.72
2022-08-26T04:00:18.468Z,6.63
2022-08-26T04:02:20.409Z,6.15
2022-08-26T04:04:22.841Z,5.88
2022-08-26T04:06:27.599Z,6.10
2022-08-26T04:08:29.357Z,6.60
2022-08-26T04:10:31.265Z,6.93
2022-08-26T04:12:32.992Z,6.50
2022-08-26T04:14:35.733Z,7.03
2022-08-26T04:16:39.908Z,7.10
2022-08-26T04:18:46.461Z,6.78
2022-08-26T04:20:49.333Z,7.28
2022-08-26T04:22:51.127Z,6.53
2022-08-26T04:25:04.157Z,6.68
2022-08-26T04:27:08.749Z,6.85
2022-08-26T04:29:20.850Z,6.53
2022-08-26T04:31:22.889Z,6.30
2022-08-26T04:33:32.534Z,7.10
2022-08-26T04:35:37.112Z,7.35
2022-08-26T04:37:39.393Z,7.32
2022-08-26T04:39:44.817Z,7.15
2022-08-26T04:41:50.902Z,7.68
2022-08-26T04:43:53.584Z,7.38
2022-08-26T04:45:56.637Z,7.82
2022-08-26T04:47:58.517Z,7.97
2022-08-26T04:50:00.317Z,8.20
2022-08-26T04:52:05.233Z,8.38
2022-08-26T04:54:07.529Z,8.32
2022-08-26T04:56:09.218Z,8.27
2022-08-26T04:58:15.249Z,7.85
2022-08-26T05:00:17.390Z,8.23
2022-08-26T05:02:19.427Z,8.30
2022-08-26T05:04:21.392Z,9.00
2022-08-26T05:06:24.348Z,8.40
2022-08-26T05:08:26.336Z,8.52
2022-08-26T05:10:29.224Z,7.97
2022-08-26T05:12:31.530Z,7.85
2022-08-26T05:14:33.648Z,8.55
2022-08-26T05:16:35.783Z,8.77
2022-08-26T05:18:41.272Z,7.38
2022-08-26T05:20:47.839Z,7.88
2022-08-26T05:22:49.545Z,8.02
2022-08-26T05:25:04.217Z,7.90
2022-08-26T05:27:11.513Z,8.77
2022-08-26T05:29:14.163Z,7.90
2022-08-26T05:31:19.549Z,7.85
2022-08-26T05:33:22.088Z,8.18
2022-08-26T05:35:23.820Z,8.00
2022-08-26T05:37:25.543Z,8.27
2022-08-26T05:39:27.298Z,8.68
2022-08-26T05:41:34.579Z,8.60
2022-08-26T05:43:38.522Z,7.28
2022-08-26T05:45:50.270Z,7.25
2022-08-26T05:47:52.029Z,8.05
2022-08-26T05:49:53.696Z,7.20
2022-08-26T05:51:55.393Z,7.95
2022-08-26T05:53:57.157Z,7.43
2022-08-26T05:56:00.101Z,7.78
2022-08-26T05:58:02.753Z,7.63
2022-08-26T06:00:05.269Z,7.22
2022-08-26T06:02:08.163Z,7.40
2022-08-26T06:04:11.441Z,7.18
2022-08-26T06:06:21.554Z,7.22
2022-08-26T06:08:29.638Z,7.03
2022-08-26T06:10:33.119Z,7.55
2022-08-26T06:12:35.007Z,7.82
2022-08-26T06:14:37.173Z,6.78
2022-08-26T06:16:41.363Z,8.00
2022-08-26T06:18:47.335Z,7.05
2022-08-26T06:20:57.904Z,6.45
2022-08-26T06:23:18.328Z,6.93
2022-08-26T06:25:38.344Z,6.68
2022-08-26T06:27:40.107Z,7.23
2022-08-26T06:29:41.989Z,7.30
2022-08-26T06:31:43.825Z,7.35
2022-08-26T06:33:45.655Z,7.28
2022-08-26T06:35:48.281Z,7.85
2022-08-26T06:37:49.991Z,7.38
2022-08-26T06:39:51.787Z,7.28
2022-08-26T06:41:53.554Z,7.63
2022-08-26T06:43:56.912Z,6.88
2022-08-26T06:46:08.455Z,7.40
2022-08-26T06:48:11.035Z,7.47
2022-08-26T06:50:14.199Z,7.32
2022-08-26T06:52:21.183Z,8.18
2022-08-26T06:54:31.802Z,7.55
2022-08-26T06:56:37.571Z,8.68
2022-08-26T06:58:40.827Z,7.40
2022-08-26T07:00:47.383Z,6.97
2022-08-26T07:02:49.546Z,7.10
2022-08-26T07:05:02.621Z,7.15
2022-08-26T07:07:04.399Z,8.20
2022-08-26T07:09:09.976Z,8.20
2022-08-26T07:11:12.395Z,7.32
2022-08-26T07:13:14.225Z,8.60
2022-08-26T07:15:16.307Z,7.50
2022-08-26T07:17:18.319Z,7.93
2022-08-26T07:19:30.505Z,6.93
2022-08-26T07:21:33.580Z,7.20
2022-08-26T07:23:36.427Z,7.43
2022-08-26T07:25:40.641Z,6.45
2022-08-26T07:27:43.623Z,6.35
2022-08-26T07:29:45.571Z,5.50
2022-08-26T07:31:47.370Z,5.15
2022-08-26T07:33:50.431Z,5.55
2022-08-26T07:35:52.572Z,5.63
2022-08-26T07:37:57.050Z,4.78
2022-08-26T07:40:00.306Z,4.55
2022-08-26T07:42:07.559Z,4.60
2022-08-26T07:44:10.261Z,4.38
2022-08-26T07:46:18.517Z,4.00
2022-08-26T07:48:23.741Z,3.92
2022-08-26T07:50:49.001Z,4.40
2022-08-26T07:52:48.710Z,4.25
2022-08-26T07:54:59.176Z,5.32
2022-08-26T07:57:01.635Z,5.32
2022-08-26T07:59:13.639Z,4.43
2022-08-26T08:01:16.156Z,5.05
2022-08-26T08:03:17.879Z,4.60
2022-08-26T08:05:22.327Z,4.57
2022-08-26T08:07:45.062Z,4.45
2022-08-26T08:09:51.372Z,3.90
2022-08-26T08:11:53.652Z,4.55
2022-08-26T08:13:56.908Z,4.18
2022-08-26T08:15:58.694Z,3.28
2022-08-26T08:18:01.236Z,4.70
2022-08-26T08:20:04.503Z,5.78
2022-08-26T08:22:17.050Z,4.97
2022-08-26T08:24:19.405Z,5.45
2022-08-26T08:26:22.062Z,5.38
2022-08-26T08:28:23.816Z,5.07
2022-08-26T08:30:25.998Z,5.15
2022-08-26T08:32:29.750Z,5.60
2022-08-26T08:34:31.670Z,5.72
2022-08-26T08:36:36.131Z,5.35
2022-08-26T08:38:38.690Z,5.25
2022-08-26T08:40:42.389Z,6.00
2022-08-26T08:42:50.137Z,4.78
2022-08-26T08:45:04.027Z,5.38
2022-08-26T08:47:17.714Z,5.50
2022-08-26T08:49:20.235Z,5.90
2022-08-26T08:51:34.081Z,5.60
2022-08-26T08:53:43.082Z,5.88
2022-08-26T08:56:15.152Z,4.80
2022-08-26T08:58:21.473Z,6.18
2022-08-26T09:00:30.343Z,5.90
2022-08-26T09:02:47.898Z,5.35
2022-08-26T09:05:21.682Z,5.00
2022-08-26T09:07:36.718Z,6.43
2022-08-26T09:10:08.635Z,5.53
2022-08-26T09:12:20.507Z,6.25
2022-08-26T09:16:51.715Z,5.90
2022-08-26T09:18:56.328Z,6.57
2022-08-26T09:21:05.822Z,5.85
2022-08-26T09:23:10.384Z,5.90
2022-08-26T09:25:14.413Z,5.15
2022-08-26T09:27:40.708Z,5.07
2022-08-26T09:29:45.522Z,5.72
2022-08-26T09:32:13.060Z,5.78
2022-08-26T09:34:17.360Z,5.35
2022-08-26T09:36:39.167Z,5.05
2022-08-26T09:38:42.218Z,3.78
2022-08-26T09:41:00.962Z,4.22
2022-08-26T09:43:22.919Z,3.28
2022-08-26T09:45:29.067Z,3.22
2022-08-26T09:47:39.129Z,3.67
2022-08-26T09:49:42.263Z,3.33
2022-08-26T09:51:44.357Z,3.80
2022-08-26T09:53:57.801Z,4.43
2022-08-26T09:56:23.864Z,3.20
2022-08-26T09:58:38.103Z,3.10
2022-08-26T10:00:43.269Z,2.80
2022-08-26T10:02:47.570Z,2.30
2022-08-26T10:05:09.668Z,2.35
2022-08-26T10:07:31.940Z,1.70
2022-08-26T10:09:39.279Z,2.08
2022-08-26T10:11:50.216Z,2.75
2022-08-26T10:13:56.917Z,2.67
2022-08-26T10:16:17.725Z,2.50
2022-08-26T10:18:25.182Z,2.60
2022-08-26T10:20:35.240Z,2.22
2022-08-26T10:22:43.017Z,2.28
2022-08-26T10:24:51.959Z,2.30
2022-08-26T10:27:35.001Z,2.35
2022-08-26T10:29:44.203Z,1.88
2022-08-26T10:31:55.311Z,2.95
2022-08-26T10:34:04.404Z,2.45
2022-08-26T10:36:39.263Z,2.55
2022-08-26T10:38:48.994Z,2.50
2022-08-26T10:41:13.903Z,2.45
2022-08-26T10:43:25.587Z,2.63
2022-08-26T10:45:30.335Z,2.20
2022-08-26T10:47:43.471Z,2.42
2022-08-26T10:49:49.273Z,2.83
2022-08-26T10:52:18.458Z,2.55
2022-08-26T10:54:35.209Z,2.97
2022-08-26T10:56:58.660Z,2.90
2022-08-26T10:59:44.549Z,2.60
2022-08-26T11:01:57.776Z,2.10
2022-08-26T11:04:17.334Z,2.50
2022-08-26T11:06:18.990Z,2.60
2022-08-26T11:08:20.790Z,2.30
2022-08-26T11:10:25.051Z,2.08
2022-08-26T11:12:36.161Z,2.15
2022-08-26T11:14:58.427Z,2.17
2022-08-26T11:17:01.532Z,1.65
2022-08-26T11:19:04.101Z,2.00
2022-08-26T11:21:44.502Z,2.05
2022-08-26T11:23:50.745Z,2.17
2022-08-26T11:26:09.884Z,2.42
2022-08-26T11:28:36.338Z,2.60
2022-08-26T11:30:43.584Z,2.70
2022-08-26T11:32:55.240Z,2.13
2022-08-26T11:35:07.396Z,1.90
2022-08-26T11:37:15.783Z,1.30
2022-08-26T11:39:20.424Z,1.70
2022-08-26T11:41:27.484Z,1.50
2022-08-26T11:43:30.493Z,2.35
2022-08-26T11:45:41.723Z,1.90
2022-08-26T11:47:44.795Z,1.65
2022-08-26T11:49:46.539Z,1.70
2022-08-26T11:51:48.732Z,1.70
2022-08-26T11:53:51.354Z,1.70
2022-08-26T11:55:55.878Z,1.23
2022-08-26T11:58:00.981Z,1.25
2022-08-26T12:00:04.105Z,1.85
2022-08-26T12:02:14.338Z,1.98
2022-08-26T12:04:38.241Z,1.33
2022-08-26T12:06:47.883Z,1.35
2022-08-26T12:08:51.725Z,1.15
2022-08-26T12:11:21.386Z,1.30
2022-08-26T12:13:26.511Z,1.25
2022-08-26T12:15:30.933Z,1.50
2022-08-26T12:17:33.649Z,1.80
2022-08-26T12:19:35.483Z,1.63
2022-08-26T12:21:37.729Z,1.77
2022-08-26T12:23:44.220Z,1.60
2022-08-26T12:25:46.649Z,1.10
2022-08-26T12:27:53.761Z,1.30
2022-08-26T12:30:17.960Z,1.70
2022-08-26T12:32:25.046Z,1.40
2022-08-26T12:34:28.336Z,1.20
2022-08-26T12:36:37.416Z,1.35
2022-08-26T12:38:40.586Z,1.52
2022-08-26T12:40:45.328Z,1.15
2022-08-26T12:42:47.634Z,1.30
2022-08-26T12:44:56.589Z,1.38
2022-08-26T12:47:03.895Z,1.63
2022-08-26T12:49:05.791Z,1.00
2022-08-26T12:51:14.669Z,1.45
2022-08-26T12:53:25.629Z,1.40
2022-08-26T12:55:33.202Z,1.45
2022-08-26T12:57:37.596Z,1.52
2022-08-26T12:59:39.467Z,1.90
2022-08-26T13:01:43.783Z,1.35
2022-08-26T13:03:46.626Z,1.13
2022-08-26T13:05:48.377Z,1.10
2022-08-26T13:08:10.557Z,1.10
2022-08-26T13:10:36.506Z,1.30
2022-08-26T13:12:38.391Z,0.95
2022-08-26T13:14:40.589Z,1.33
2022-08-26T13:16:42.609Z,0.80
2022-08-26T13:18:44.330Z,0.85
2022-08-26T13:20:46.314Z,0.95
2022-08-26T13:22:51.708Z,1.10
2022-08-26T13:25:04.239Z,0.80
2022-08-26T13:27:08.372Z,1.20
2022-08-26T13:29:10.666Z,1.02
2022-08-26T13:31:14.408Z,1.02
2022-08-26T13:33:18.632Z,0.82
2022-08-26T13:35:21.427Z,1.40
2022-08-26T13:37:24.401Z,1.45
2022-08-26T13:39:36.890Z,1.27
2022-08-26T13:41:38.903Z,1.00
2022-08-26T13:43:40.594Z,1.38
2022-08-26T13:45:42.744Z,1.35
2022-08-26T13:47:44.716Z,1.10
2022-08-26T13:49:46.994Z,1.02
2022-08-26T13:51:48.785Z,0.90
2022-08-26T13:53:51.532Z,1.00
2022-08-26T13:55:53.348Z,0.70
2022-08-26T13:57:56.750Z,1.05
2022-08-26T13:59:59.588Z,0.60
2022-08-26T14:02:02.971Z,0.95
2022-08-26T14:04:04.664Z,0.90
2022-08-26T14:06:06.364Z,0.90
2022-08-26T14:08:08.506Z,1.15
2022-08-26T14:10:10.772Z,1.05
2022-08-26T14:12:12.586Z,0.75
2022-08-26T14:14:14.267Z,1.10
2022-08-26T14:16:25.126Z,0.90
2022-08-26T14:18:35.449Z,1.17
2022-08-26T14:20:39.749Z,0.80
2022-08-26T14:23:03.650Z,1.00
2022-08-26T14:25:06.162Z,0.70
2022-08-26T14:27:07.905Z,0.98
2022-08-26T14:29:12.381Z,0.60
2022-08-26T14:31:17.331Z,0.70
2022-08-26T14:33:23.575Z,0.75
2022-08-26T14:35:28.403Z,1.15
2022-08-26T14:37:30.098Z,0.80
2022-08-26T14:39:31.944Z,0.82
2022-08-26T14:41:37.219Z,1.15
2022-08-26T14:43:48.366Z,0.95
2022-08-26T14:45:50.049Z,0.80
2022-08-26T14:47:53.651Z,0.85
2022-08-26T14:49:55.404Z,0.90
2022-08-26T14:51:57.181Z,1.05
2022-08-26T14:54:14.044Z,1.02
2022-08-26T14:56:16.840Z,0.50
2022-08-26T14:58:18.572Z,0.60
2022-08-26T15:00:20.817Z,1.35
2022-08-26T15:02:32.578Z,0.82
2022-08-26T15:04:35.576Z,0.75
2022-08-26T15:06:38.224Z,1.15
2022-08-26T15:08:40.209Z,1.33
2022-08-26T15:10:41.880Z,0.90
2022-08-26T15:12:44.155Z,0.88
2022-08-26T15:14:45.974Z,0.80
2022-08-26T15:16:49.544Z,0.70
2022-08-26T15:18:51.777Z,0.80
2022-08-26T15:20:53.487Z,0.70
2022-08-26T15:22:55.413Z,0.60
2022-08-26T15:25:05.526Z,0.77
2022-08-26T15:27:07.380Z,0.63
2022-08-26T15:29:09.164Z,0.80
2022-08-26T15:31:10.948Z,0.82
2022-08-26T15:33:15.370Z,1.50
2022-08-26T15:35:17.348Z,0.90
2022-08-26T15:37:19.096Z,1.30
2022-08-26T15:39:21.036Z,0.80
2022-08-26T15:41:24.463Z,0.90
2022-08-26T15:43:29.154Z,1.17
2022-08-26T15:45:33.318Z,0.90
2022-08-26T15:47:35.468Z,1.00
2022-08-26T15:49:48.515Z,0.80
2022-08-26T15:51:53.173Z,1.17
2022-08-26T15:53:56.476Z,1.00
2022-08-26T15:55:59.102Z,0.82
2022-08-26T15:58:01.341Z,0.90
2022-08-26T16:00:04.838Z,0.77
2022-08-26T16:02:07.418Z,0.80
2022-08-26T16:04:09.712Z,0.73
2022-08-26T16:06:14.567Z,1.13
2022-08-26T16:08:16.427Z,0.80
2022-08-26T16:10:18.652Z,0.75
2022-08-26T16:12:21.077Z,0.88
2022-08-26T16:14:23.185Z,0.90
2022-08-26T16:16:24.919Z,0.77
2022-08-26T16:18:27.802Z,1.08
2022-08-26T16:20:32.490Z,0.65
2022-08-26T16:22:34.203Z,0.85
2022-08-26T16:24:36.719Z,1.00
2022-08-26T16:26:40.098Z,0.73
2022-08-26T16:28:42.137Z,0.90
2022-08-26T16:30:45.630Z,0.70
2022-08-26T16:32:48.457Z,0.80
2022-08-26T16:34:56.187Z,1.05
2022-08-26T16:36:58.623Z,0.80
2022-08-26T16:39:00.632Z,0.80
2022-08-26T16:41:02.433Z,0.63
2022-08-26T16:43:04.238Z,0.77
2022-08-26T16:45:06.683Z,1.00
2022-08-26T16:47:08.334Z,0.88
2022-08-26T16:49:10.046Z,1.00
2022-08-26T16:51:18.668Z,0.65
2022-08-26T16:53:20.350Z,1.10
2022-08-26T16:55:22.689Z,0.70
2022-08-26T16:57:24.405Z,0.90
2022-08-26T16:59:26.287Z,1.00
2022-08-26T17:01:28.061Z,0.90
2022-08-26T17:03:29.763Z,0.70
2022-08-26T17:05:31.467Z,0.70
2022-08-26T17:07:35.510Z,0.63
2022-08-26T17:09:37.557Z,0.68
2022-08-26T17:11:43.919Z,0.60
2022-08-26T17:13:45.552Z,0.80
2022-08-26T17:15:54.156Z,0.80
2022-08-26T17:18:00.102Z,0.70
2022-08-26T17:20:08.007Z,1.13
2022-08-26T17:22:09.692Z,0.90
2022-08-26T17:24:11.531Z,0.85
2022-08-26T17:26:13.208Z,0.80
2022-08-26T17:28:15.315Z,1.00
2022-08-26T17:30:17.806Z,0.90
2022-08-26T17:32:19.515Z,0.82
2022-08-26T17:34:21.982Z,1.10
2022-08-26T17:36:27.474Z,1.13
2022-08-26T17:38:30.016Z,0.80
2022-08-26T17:40:31.896Z,0.77
2022-08-26T17:42:33.638Z,0.90
2022-08-26T17:44:35.477Z,0.70
2022-08-26T17:46:38.499Z,1.05
2022-08-26T17:48:41.455Z,1.17
2022-08-26T17:50:46.295Z,0.95
2022-08-26T17:52:51.776Z,0.90
2022-08-26T17:54:59.278Z,1.25
2022-08-26T17:57:00.984Z,1.13
2022-08-26T17:59:04.055Z,1.00
2022-08-26T18:01:06.392Z,1.25
2022-08-26T18:03:08.503Z,1.20
2022-08-26T18:05:13.128Z,1.00
2022-08-26T18:07:16.255Z,0.90
2022-08-26T18:09:18.234Z,1.23
2022-08-26T18:11:23.190Z,1.00
2022-08-26T18:13:25.350Z,1.25
2022-08-26T18:15:27.939Z,1.15
2022-08-26T18:17:30.047Z,1.27
2022-08-26T18:19:32.046Z,1.23
2022-08-26T18:21:36.465Z,1.17
2022-08-26T18:23:38.424Z,1.00
2022-08-26T18:25:44.318Z,1.27
2022-08-26T18:27:46.358Z,1.65
2022-08-26T18:29:48.774Z,1.25
2022-08-26T18:31:50.649Z,1.55
2022-08-26T18:33:53.144Z,1.15
2022-08-26T18:35:55.024Z,1.38
2022-08-26T18:37:58.518Z,2.00
2022-08-26T18:40:13.124Z,1.58
2022-08-26T18:42:15.276Z,1.73
2022-08-26T18:44:19.438Z,2.10
2022-08-26T18:46:25.305Z,2.65
2022-08-26T18:48:28.655Z,1.85
2022-08-26T18:50:31.291Z,1.92
2022-08-26T18:52:33.284Z,2.45
2022-08-26T18:54:36.512Z,1.60
2022-08-26T18:56:40.201Z,1.60
2022-08-26T18:58:42.121Z,1.83
2022-08-26T19:00:44.020Z,1.88
2022-08-26T19:02:47.047Z,1.40
2022-08-26T19:05:04.438Z,1.45
2022-08-26T19:07:07.509Z,1.85
2022-08-26T19:09:11.864Z,1.40
2022-08-26T19:11:17.721Z,1.45
2022-08-26T19:13:33.692Z,1.70
2022-08-26T19:15:42.756Z,2.08
2022-08-26T19:17:44.646Z,2.30
2022-08-26T19:19:47.127Z,1.67
2022-08-26T19:21:49.012Z,1.30
2022-08-26T19:23:52.230Z,2.13
2022-08-26T19:25:54.145Z,1.77
2022-08-26T19:27:56.142Z,2.33
2022-08-26T19:29:58.484Z,2.13
2022-08-26T19:32:02.089Z,1.98
2022-08-26T19:34:05.452Z,1.65
2022-08-26T19:36:11.429Z,1.58
2022-08-26T19:38:16.406Z,1.85
2022-08-26T19:40:18.375Z,2.28
2022-08-26T19:42:22.543Z,1.90
2022-08-26T19:44:42.997Z,1.50
2022-08-26T19:46:45.546Z,1.70
2022-08-26T19:48:49.945Z,1.60
2022-08-26T19:50:54.885Z,2.10
2022-08-26T19:52:57.123Z,1.80
2022-08-26T19:55:06.814Z,2.10
2022-08-26T19:57:08.857Z,1.77
2022-08-26T19:59:10.864Z,1.90
2022-08-26T20:01:14.437Z,2.10
2022-08-26T20:03:16.498Z,2.38
2022-08-26T20:05:21.164Z,2.08
2022-08-26T20:07:23.240Z,1.92
2022-08-26T20:09:25.763Z,2.55
2022-08-26T20:11:27.548Z,2.40
2022-08-26T20:13:29.318Z,1.88
2022-08-26T20:15:31.010Z,1.52
2022-08-26T20:17:33.078Z,2.10
2022-08-26T20:19:53.848Z,2.78
2022-08-26T20:24:00.708Z,2.70
2022-08-26T20:26:03.213Z,2.45
2022-08-26T20:28:05.287Z,3.45
2022-08-26T20:30:09.752Z,2.95
2022-08-26T20:32:12.253Z,3.55
2022-08-26T20:34:18.351Z,3.40
2022-08-26T20:36:22.120Z,2.97
2022-08-26T20:38:26.370Z,2.90
2022-08-26T20:40:29.281Z,2.45
2022-08-26T20:42:31.203Z,2.60
2022-08-26T20:44:33.518Z,2.40
2022-08-26T20:46:35.955Z,2.78
2022-08-26T20:48:38.391Z,2.65
2022-08-26T20:50:40.802Z,3.60
2022-08-26T20:52:42.818Z,2.65
2022-08-26T20:54:44.844Z,3.92
2022-08-26T20:56:47.422Z,3.28
2022-08-26T20:58:50.113Z,2.95
2022-08-26T21:00:52.476Z,2.58
2022-08-26T21:02:54.596Z,2.80
2022-08-26T21:05:05.058Z,3.45
2022-08-26T21:07:07.166Z,3.88
2022-08-26T21:09:11.151Z,5.72
2022-08-26T21:11:13.558Z,5.10
2022-08-26T21:13:15.441Z,4.28
2022-08-26T21:15:17.487Z,3.75
2022-08-26T21:17:19.539Z,3.88
2022-08-26T21:19:22.020Z,3.15
2022-08-26T21:21:27.535Z,3.03
2022-08-26T21:23:29.900Z,2.83
2022-08-26T21:25:31.811Z,2.67
2022-08-26T21:27:35.963Z,2.88
2022-08-26T21:29:37.910Z,2.78
2022-08-26T21:31:45.496Z,2.67
2022-08-26T21:33:48.285Z,3.17
2022-08-26T21:35:54.611Z,3.42
2022-08-26T21:37:56.351Z,2.70
2022-08-26T21:39:59.697Z,2.83
2022-08-26T21:42:01.474Z,3.20
2022-08-26T21:44:03.612Z,3.08
2022-08-26T21:46:11.755Z,3.35
2022-08-26T21:48:13.409Z,3.63
2022-08-26T21:50:15.168Z,3.08
2022-08-26T21:52:17.990Z,2.95
2022-08-26T21:54:19.816Z,3.00
2022-08-26T21:56:23.328Z,3.10
2022-08-26T21:58:25.031Z,3.15
2022-08-26T22:00:26.742Z,3.30
2022-08-26T22:02:28.549Z,3.13
2022-08-26T22:04:30.282Z,3.28
2022-08-26T22:06:34.546Z,2.88
2022-08-26T22:08:36.707Z,2.67
2022-08-26T22:10:41.595Z,3.25
2022-08-26T22:12:43.328Z,3.00
2022-08-26T22:14:45.700Z,3.13
2022-08-26T22:16:50.500Z,3.25
2022-08-26T22:18:54.828Z,3.78
2022-08-26T22:21:00.932Z,3.20
2022-08-26T22:23:03.109Z,3.75
2022-08-26T22:25:06.485Z,3.42
2022-08-26T22:27:09.089Z,3.83
2022-08-26T22:29:11.167Z,4.18
2022-08-26T22:31:14.330Z,3.28
2022-08-26T22:33:17.395Z,3.03
2022-08-26T22:35:28.457Z,3.28
2022-08-26T22:37:31.346Z,3.10
2022-08-26T22:39:33.365Z,3.45
2022-08-26T22:41:35.490Z,3.28
2022-08-26T22:43:38.479Z,3.65
2022-08-26T22:45:43.269Z,3.28
2022-08-26T22:47:45.045Z,3.83
2022-08-26T22:49:46.807Z,3.78
2022-08-26T22:51:48.824Z,3.03
2022-08-26T22:53:50.626Z,2.97
2022-08-26T22:55:52.330Z,3.15
2022-08-26T22:57:54.098Z,3.13
2022-08-26T22:59:56.002Z,3.00
2022-08-26T23:01:57.991Z,3.08
2022-08-26T23:03:59.874Z,3.33
2022-08-26T23:06:04.755Z,3.97
2022-08-26T23:08:07.885Z,4.07
2022-08-26T23:10:10.181Z,4.43
2022-08-26T23:12:12.424Z,3.75
2022-08-26T23:14:14.603Z,3.80
2022-08-26T23:16:16.430Z,3.72
2022-08-26T23:18:18.094Z,3.67
2022-08-26T23:20:19.994Z,3.65
2022-08-26T23:22:21.655Z,3.45
2022-08-26T23:24:51.198Z,4.03
2022-08-26T23:26:52.889Z,3.55
2022-08-26T23:28:55.527Z,3.42
2022-08-26T23:30:57.673Z,4.40
2022-08-26T23:32:59.605Z,4.10
2022-08-26T23:35:06.516Z,4.93
2022-08-26T23:37:09.380Z,3.85
2022-08-26T23:39:11.484Z,4.25
2022-08-26T23:41:13.644Z,3.75
2022-08-26T23:43:18.969Z,4.57
2022-08-26T23:45:22.315Z,4.43
2022-08-26T23:47:25.055Z,4.28
2022-08-26T23:49:27.843Z,4.75
2022-08-26T23:51:48.714Z,4.35
2022-08-26T23:53:51.333Z,5.00
2022-08-26T23:55:53.346Z,4.07
2022-08-26T23:57:55.292Z,4.88
2022-08-26T23:59:58.022Z,4.65
